createdAt,value
2023-01-10T00:01:52.663Z,2.88
2023-01-10T00:06:49.531Z,2.85
2023-01-10T00:12:16.698Z,2.93
2023-01-10T00:17:13.468Z,2.88
2023-01-10T00:22:13.453Z,2.95
2023-01-10T00:27:12.517Z,2.94
2023-01-10T00:32:09.462Z,2.93
2023-01-10T00:37:06.326Z,2.90
2023-01-10T00:42:20.878Z,2.46
2023-01-10T00:47:18.415Z,3.05
2023-01-10T00:52:15.223Z,3.02
2023-01-10T00:57:12.020Z,2.89
2023-01-10T01:02:08.964Z,3.15
2023-01-10T01:07:06.498Z,3.01
2023-01-10T01:12:03.471Z,3.01
2023-01-10T01:17:00.278Z,2.87
2023-01-10T01:21:57.126Z,2.93
2023-01-10T01:26:54.660Z,2.65
2023-01-10T01:31:51.582Z,2.53
2023-01-10T01:36:48.692Z,3.02
2023-01-10T01:41:56.775Z,3.44
2023-01-10T01:47:03.602Z,3.71
2023-01-10T01:52:08.916Z,3.73
2023-01-10T01:57:10.285Z,3.64
2023-01-10T02:02:13.177Z,3.28
2023-01-10T02:07:11.161Z,3.63
2023-01-10T02:12:09.056Z,3.67
2023-01-10T02:17:09.066Z,3.68
2023-01-10T02:22:50.464Z,3.66
2023-01-10T02:28:08.494Z,3.93
2023-01-10T02:33:15.682Z,3.92
2023-01-10T02:38:21.500Z,4.03
2023-01-10T02:43:20.711Z,4.07
2023-01-10T02:48:18.503Z,3.76
2023-01-10T02:53:18.620Z,4.17
2023-01-10T02:58:32.005Z,4.12
2023-01-10T03:03:35.977Z,4.26
2023-01-10T03:08:37.618Z,4.03
2023-01-10T03:13:41.036Z,3.98
2023-01-10T03:18:47.515Z,4.08
2023-01-10T03:23:45.803Z,4.31
2023-01-10T03:28:49.159Z,4.31
2023-01-10T03:33:47.946Z,4.38
2023-01-10T03:38:50.372Z,4.18
2023-01-10T03:44:12.189Z,4.48
2023-01-10T03:49:11.557Z,4.54
2023-01-10T03:54:08.733Z,4.20
2023-01-10T03:59:05.586Z,4.26
2023-01-10T04:04:03.438Z,4.61
2023-01-10T04:09:00.934Z,4.50
2023-01-10T04:13:57.716Z,4.53
2023-01-10T04:18:54.520Z,4.62
2023-01-10T04:23:51.274Z,4.43
2023-01-10T04:28:48.826Z,4.61
2023-01-10T04:33:45.747Z,4.25
2023-01-10T04:38:42.622Z,4.31
2023-01-10T04:43:39.582Z,4.53
2023-01-10T04:48:39.235Z,4.51
2023-01-10T04:53:36.017Z,4.53
2023-01-10T04:58:33.803Z,4.41
2023-01-10T05:03:30.611Z,4.36
2023-01-10T05:08:28.244Z,4.30
2023-01-10T05:13:26.243Z,4.53
2023-01-10T05:18:23.369Z,4.55
2023-01-10T05:23:20.710Z,4.58
2023-01-10T05:28:18.347Z,4.41
2023-01-10T05:33:15.367Z,4.31
2023-01-10T05:38:21.038Z,4.63
2023-01-10T05:43:18.720Z,4.59
2023-01-10T05:48:16.669Z,4.53
2023-01-10T05:53:13.494Z,4.52
2023-01-10T05:58:10.909Z,4.26
2023-01-10T06:03:08.456Z,4.26
2023-01-10T06:08:05.401Z,3.92
2023-01-10T06:13:04.924Z,4.41
2023-01-10T06:18:01.768Z,4.41
2023-01-10T06:23:01.714Z,4.46
2023-01-10T06:27:58.628Z,4.34
2023-01-10T06:33:03.535Z,4.31
2023-01-10T06:38:01.079Z,4.70
2023-01-10T06:42:58.569Z,4.76
2023-01-10T06:47:55.565Z,4.71
2023-01-10T06:52:56.971Z,4.76
2023-01-10T06:57:58.571Z,4.74
2023-01-10T07:02:56.208Z,4.63
2023-01-10T07:07:53.076Z,4.75
2023-01-10T07:12:50.103Z,4.86
2023-01-10T07:17:47.706Z,4.45
2023-01-10T07:22:44.480Z,4.71
2023-01-10T07:27:42.804Z,4.72
2023-01-10T07:32:39.767Z,5.22
2023-01-10T07:37:37.452Z,5.18
2023-01-10T07:42:35.601Z,5.47
2023-01-10T07:47:32.709Z,5.56
2023-01-10T07:52:29.721Z,5.65
2023-01-10T07:57:27.320Z,5.59
2023-01-10T08:02:24.251Z,5.97
2023-01-10T08:07:21.184Z,6.28
2023-01-10T08:12:17.998Z,6.44
2023-01-10T08:17:15.630Z,6.38
2023-01-10T08:22:12.721Z,6.89
2023-01-10T08:27:10.116Z,7.07
2023-01-10T08:32:07.032Z,6.77
2023-01-10T08:37:04.659Z,7.24
2023-01-10T08:42:01.680Z,7.31
2023-01-10T08:46:58.689Z,7.34
2023-01-10T08:51:55.737Z,7.15
2023-01-10T08:56:54.015Z,6.98
2023-01-10T09:01:51.695Z,7.73
2023-01-10T09:06:53.936Z,7.62
2023-01-10T09:11:55.328Z,7.86
2023-01-10T09:17:01.716Z,7.92
2023-01-10T09:22:04.352Z,8.04
2023-01-10T09:27:06.961Z,7.91
2023-01-10T09:32:13.855Z,8.36
2023-01-10T09:37:12.844Z,7.90
2023-01-10T09:42:31.837Z,8.36
2023-01-10T09:47:50.590Z,8.20
2023-01-10T09:52:53.274Z,8.74
2023-01-10T09:57:55.391Z,8.78
2023-01-10T10:02:57.802Z,8.79
2023-01-10T10:07:59.326Z,8.60
2023-01-10T10:13:14.044Z,8.87
2023-01-10T10:18:25.543Z,8.30
2023-01-10T10:23:46.311Z,8.55
2023-01-10T10:29:19.333Z,8.91
2023-01-10T10:34:26.018Z,8.66
2023-01-10T10:39:31.492Z,8.84
2023-01-10T10:44:39.970Z,9.02
2023-01-10T10:55:29.750Z,8.67
2023-01-10T11:00:28.048Z,9.04
2023-01-10T11:05:43.440Z,8.90
2023-01-10T11:10:43.117Z,9.45
2023-01-10T11:15:46.151Z,9.05
2023-01-10T11:20:57.760Z,9.62
2023-01-10T11:25:56.959Z,9.62
2023-01-10T11:30:55.044Z,9.40
2023-01-10T11:36:01.556Z,9.88
2023-01-10T11:41:01.444Z,10.07
2023-01-10T11:46:02.116Z,9.62
2023-01-10T11:51:00.217Z,9.93
2023-01-10T11:55:57.433Z,10.27
2023-01-10T12:00:54.468Z,10.34
2023-01-10T12:05:53.747Z,10.45
2023-01-10T12:10:58.102Z,10.73
2023-01-10T12:16:15.329Z,10.80
2023-01-10T12:21:15.735Z,10.90
2023-01-10T12:26:16.847Z,10.90
2023-01-10T12:31:16.179Z,11.22
2023-01-10T12:36:34.877Z,10.86
2023-01-10T12:42:02.710Z,11.10
2023-01-10T12:47:09.903Z,10.86
2023-01-10T12:52:12.940Z,11.13
2023-01-10T12:57:22.440Z,10.93
2023-01-10T13:02:37.573Z,10.68
2023-01-10T13:07:40.050Z,10.77
2023-01-10T13:12:57.820Z,10.98
2023-01-10T13:18:10.507Z,10.77
2023-01-10T13:23:32.190Z,11.18
2023-01-10T13:34:40.307Z,10.57
2023-01-10T13:40:12.735Z,10.71
2023-01-10T13:45:44.019Z,11.05
2023-01-10T13:51:18.393Z,10.52
2023-01-10T13:56:51.532Z,10.69
2023-01-10T14:02:22.287Z,10.38
2023-01-10T14:07:31.470Z,10.14
2023-01-10T14:12:41.602Z,10.12
2023-01-10T14:17:44.196Z,10.57
2023-01-10T14:22:56.748Z,10.59
2023-01-10T14:27:55.371Z,10.45
2023-01-10T14:32:58.136Z,10.51
2023-01-10T14:38:02.395Z,10.61
2023-01-10T14:43:02.770Z,10.57
2023-01-10T14:48:15.729Z,10.00
2023-01-10T14:53:26.376Z,10.43
2023-01-10T14:58:24.268Z,10.75
2023-01-10T15:03:25.706Z,10.60
2023-01-10T15:08:25.808Z,10.47
2023-01-10T15:13:27.642Z,10.73
2023-01-10T15:18:32.761Z,10.48
2023-01-10T15:23:36.847Z,10.36
2023-01-10T15:28:35.503Z,10.17
2023-01-10T15:33:36.669Z,10.80
2023-01-10T15:38:38.015Z,10.77
2023-01-10T15:43:38.719Z,10.85
2023-01-10T15:48:39.805Z,10.75
2023-01-10T15:54:02.934Z,10.74
2023-01-10T15:59:04.499Z,10.68
2023-01-10T16:10:08.200Z,10.52
2023-01-10T16:15:21.342Z,10.77
2023-01-10T16:20:30.083Z,10.71
2023-01-10T16:25:47.115Z,11.32
2023-01-10T16:30:59.109Z,10.82
2023-01-10T16:36:04.700Z,11.48
2023-01-10T16:41:29.077Z,11.74
2023-01-10T16:46:39.023Z,11.62
2023-01-10T16:51:49.028Z,11.12
2023-01-10T16:57:00.640Z,11.03
2023-01-10T17:02:14.556Z,11.06
2023-01-10T17:07:18.995Z,10.60
2023-01-10T17:12:22.652Z,10.46
2023-01-10T17:17:33.217Z,10.79
2023-01-10T17:22:33.558Z,10.15
2023-01-10T17:27:31.211Z,10.53
2023-01-10T17:32:30.460Z,10.04
2023-01-10T17:37:28.599Z,10.07
2023-01-10T17:42:27.114Z,10.04
2023-01-10T17:47:24.988Z,10.06
2023-01-10T17:52:26.675Z,9.98
2023-01-10T17:57:26.715Z,9.92
2023-01-10T18:02:24.862Z,10.05
2023-01-10T18:07:22.988Z,10.02
2023-01-10T18:12:25.051Z,9.89
2023-01-10T18:17:31.035Z,9.84
2023-01-10T18:22:54.619Z,9.20
2023-01-10T18:27:56.702Z,9.24
2023-01-10T18:32:55.342Z,9.23
2023-01-10T18:37:58.557Z,9.19
2023-01-10T18:43:13.875Z,9.31
2023-01-10T18:48:26.985Z,9.28
2023-01-10T18:53:31.801Z,9.48
2023-01-10T19:03:46.738Z,9.00
2023-01-10T19:08:45.964Z,9.46
2023-01-10T19:13:47.603Z,9.01
2023-01-10T19:18:55.838Z,9.04
2023-01-10T19:24:05.544Z,9.20
2023-01-10T19:29:07.142Z,9.14
2023-01-10T19:34:09.041Z,8.74
2023-01-10T19:39:16.525Z,8.90
2023-01-10T19:49:48.266Z,8.82
2023-01-10T19:54:50.435Z,9.13
2023-01-10T19:59:54.374Z,8.66
2023-01-10T20:04:54.309Z,8.41
2023-01-10T20:09:56.082Z,8.99
2023-01-10T20:14:54.681Z,8.96
2023-01-10T20:19:56.763Z,8.78
2023-01-10T20:24:57.751Z,8.65
2023-01-10T20:30:18.369Z,8.96
2023-01-10T20:35:22.524Z,8.69
2023-01-10T20:40:27.754Z,8.45
2023-01-10T20:45:25.363Z,8.40
2023-01-10T20:50:30.589Z,8.58
2023-01-10T20:55:59.922Z,8.33
2023-01-10T21:00:57.430Z,8.36
2023-01-10T21:05:55.515Z,8.50
2023-01-10T21:10:52.671Z,8.68
2023-01-10T21:15:55.299Z,8.71
2023-01-10T21:20:55.946Z,8.81
2023-01-10T21:25:53.805Z,8.81
2023-01-10T21:30:53.094Z,8.69
2023-01-10T21:35:54.850Z,8.47
2023-01-10T21:40:53.191Z,8.80
2023-01-10T21:45:50.189Z,8.42
2023-01-10T21:50:48.798Z,8.35
2023-01-10T21:55:45.966Z,8.85
2023-01-10T22:00:43.975Z,8.65
2023-01-10T22:05:41.015Z,8.75
2023-01-10T22:10:39.492Z,8.60
2023-01-10T22:15:37.364Z,8.39
2023-01-10T22:20:35.195Z,8.69
2023-01-10T22:25:32.078Z,8.88
2023-01-10T22:30:28.993Z,8.72
2023-01-10T22:35:25.999Z,8.91
2023-01-10T22:40:23.853Z,8.90
2023-01-10T22:45:20.899Z,8.52
2023-01-10T22:50:18.069Z,8.87
2023-01-10T22:55:15.439Z,8.87
2023-01-10T23:00:14.246Z,8.68
2023-01-10T23:05:11.156Z,8.82
2023-01-10T23:10:24.412Z,8.46
2023-01-10T23:15:26.582Z,8.80
2023-01-10T23:20:23.599Z,8.82
2023-01-10T23:25:20.559Z,8.86
2023-01-10T23:30:17.516Z,8.85
2023-01-10T23:35:15.441Z,8.82
2023-01-10T23:40:12.994Z,8.67
2023-01-10T23:45:10.622Z,8.76
2023-01-10T23:50:09.045Z,8.88
2023-01-10T23:55:07.557Z,8.62
